Time;durP1;ratioP1;P1;durP2;ratioP2;P2;SDS_P1;SDS_P2;PMS_P1;PMS_P2;Temp;Humidity;BMP_temperature;BMP_pressure;BME280_temperature;BME280_humidity;BME280_pressure;Samples;Min_cycle;Max_cycle;Signal;HPM_P1;HPM_P2
2022/09/17 00:01:27;;;;;;;5.13;4.10;;;11.20;99.90;;;;;;5108916;28;20736;-53
2022/09/17 00:03:59;;;;;;;5.83;4.30;;;11.20;99.90;;;;;;5108951;28;20215;-53
2022/09/17 00:06:27;;;;;;;7.57;4.40;;;11.10;99.90;;;;;;5109103;28;20257;-53
2022/09/17 00:08:55;;;;;;;6.73;4.07;;;11.20;99.90;;;;;;5109112;28;20677;-53
2022/09/17 00:11:25;;;;;;;4.77;3.97;;;11.20;99.90;;;;;;5109318;28;20214;-53
2022/09/17 00:13:55;;;;;;;8.30;4.03;;;11.10;99.90;;;;;;5088026;28;20286;-53
2022/09/17 00:16:32;;;;;;;7.67;4.37;;;11.10;99.90;;;;;;5109263;28;20241;-53
2022/09/17 00:19:01;;;;;;;6.03;3.70;;;11.10;99.90;;;;;;5107667;28;20711;-53
2022/09/17 00:21:29;;;;;;;3.10;2.80;;;11.00;99.90;;;;;;5107653;28;20719;-53
2022/09/17 00:23:59;;;;;;;3.40;3.10;;;11.00;99.90;;;;;;5077660;28;20316;-53
2022/09/17 00:26:28;;;;;;;3.50;3.20;;;11.00;99.90;;;;;;5072254;28;20200;-53
2022/09/17 00:28:59;;;;;;;4.13;2.90;;;11.00;99.90;;;;;;5075340;28;20324;-53
2022/09/17 00:31:28;;;;;;;4.00;3.10;;;11.00;99.90;;;;;;5083155;28;20246;-52
2022/09/17 00:33:58;;;;;;;4.40;2.87;;;11.00;99.90;;;;;;5080897;28;20204;-53
2022/09/17 00:36:26;;;;;;;3.10;2.53;;;11.00;99.90;;;;;;5088629;28;20204;-53
2022/09/17 00:38:57;;;;;;;2.37;2.07;;;11.00;99.90;;;;;;5089309;28;20238;-53
2022/09/17 00:41:27;;;;;;;4.30;2.20;;;11.00;99.90;;;;;;5074780;28;20274;-53
2022/09/17 00:43:57;;;;;;;2.30;2.10;;;10.90;99.90;;;;;;5092986;28;20247;-52
2022/09/17 00:46:32;;;;;;;3.10;2.57;;;11.00;99.90;;;;;;5092779;28;20204;-53
2022/09/17 00:49:03;;;;;;;3.83;2.40;;;11.00;99.90;;;;;;5092941;28;20275;-53
2022/09/17 00:51:41;;;;;;;4.53;2.67;;;11.00;99.90;;;;;;5092802;28;20632;-53
2022/09/17 00:54:11;;;;;;;5.13;3.03;;;11.00;99.90;;;;;;5093062;28;20287;-53
2022/09/17 00:56:42;;;;;;;3.93;2.90;;;11.00;99.90;;;;;;5089903;28;20204;-53
2022/09/17 00:59:10;;;;;;;3.47;3.00;;;10.90;99.90;;;;;;5082440;28;20250;-53
2022/09/17 01:01:40;;;;;;;4.70;2.60;;;11.00;99.90;;;;;;5092564;28;20331;-53
2022/09/17 01:04:16;;;;;;;4.67;3.13;;;11.00;99.90;;;;;;5092801;28;20215;-53
2022/09/17 01:06:53;;;;;;;4.40;3.10;;;11.00;99.90;;;;;;5092795;28;20238;-53
2022/09/17 01:09:31;;;;;;;3.33;3.03;;;10.90;99.90;;;;;;5092829;28;20273;-53
2022/09/17 01:12:16;;;;;;;3.40;3.10;;;10.90;99.90;;;;;;5091600;28;20280;-53
2022/09/17 01:14:56;;;;;;;4.47;3.13;;;10.90;99.90;;;;;;5092451;28;20208;-53
2022/09/17 01:17:38;;;;;;;3.77;3.13;;;10.90;99.90;;;;;;5092388;28;20257;-52
2022/09/17 01:20:36;;;;;;;5.17;3.10;;;10.90;99.90;;;;;;5092786;28;20311;-53
2022/09/17 01:23:28;;;;;;;5.83;3.30;;;10.90;99.90;;;;;;5082077;28;20216;-53
2022/09/17 01:26:12;;;;;;;4.00;3.70;;;11.00;99.90;;;;;;5092355;28;20703;-52
2022/09/17 01:28:45;;;;;;;4.23;2.83;;;10.90;99.90;;;;;;5092293;28;20234;-53
2022/09/17 01:31:34;;;;;;;3.70;2.83;;;10.90;99.90;;;;;;5086194;28;20200;-53
2022/09/17 01:34:13;;;;;;;4.03;2.97;;;10.90;99.90;;;;;;5085881;28;20852;-53
2022/09/17 01:36:54;;;;;;;3.43;2.90;;;10.90;99.90;;;;;;5092036;28;20223;-52
2022/09/17 01:39:32;;;;;;;4.20;2.87;;;10.90;99.90;;;;;;5092280;28;20330;-53
2022/09/17 01:42:09;;;;;;;3.80;3.10;;;11.00;99.90;;;;;;5091514;28;20319;-53
2022/09/17 01:44:45;;;;;;;4.07;3.00;;;11.00;99.90;;;;;;5091974;28;20242;-53
2022/09/17 01:47:19;;;;;;;4.87;3.10;;;11.00;99.90;;;;;;5092362;28;20204;-53
2022/09/17 01:49:51;;;;;;;4.33;2.90;;;11.00;99.90;;;;;;5090699;28;20223;-53
2022/09/17 01:52:20;;;;;;;4.80;2.90;;;11.00;99.90;;;;;;5090704;28;20204;-53
2022/09/17 01:54:53;;;;;;;3.20;2.90;;;11.00;99.90;;;;;;5091737;28;20215;-53
2022/09/17 01:57:27;;;;;;;4.00;3.20;;;11.00;99.90;;;;;;5091827;28;20236;-53
2022/09/17 01:59:59;;;;;;;3.40;3.03;;;11.10;99.90;;;;;;5091547;28;20242;-53
2022/09/17 02:02:32;;;;;;;4.90;2.90;;;11.10;99.90;;;;;;5091381;28;20315;-53
2022/09/17 02:05:06;;;;;;;4.23;2.93;;;11.10;99.90;;;;;;5091091;28;20243;-53
2022/09/17 02:07:40;;;;;;;2.50;2.30;;;11.10;99.90;;;;;;5091769;28;20204;-53
2022/09/17 02:10:12;;;;;;;2.90;2.70;;;11.10;99.90;;;;;;5091045;28;20224;-53
2022/09/17 02:12:44;;;;;;;3.13;2.93;;;11.10;99.90;;;;;;5090579;28;20228;-53
2022/09/17 02:15:19;;;;;;;3.70;3.17;;;11.10;99.90;;;;;;5091288;28;20235;-53
2022/09/17 02:17:55;;;;;;;5.23;3.23;;;11.00;99.90;;;;;;5091477;28;20310;-53
2022/09/17 02:20:27;;;;;;;3.77;2.70;;;11.10;99.90;;;;;;5091212;28;20228;-53
2022/09/17 02:22:57;;;;;;;3.50;2.63;;;11.10;99.90;;;;;;5090926;28;20322;-53
2022/09/17 02:25:31;;;;;;;2.97;2.77;;;11.10;99.90;;;;;;5091440;28;20207;-53
2022/09/17 02:28:03;;;;;;;3.83;2.90;;;11.10;99.90;;;;;;5091373;28;20259;-53
2022/09/17 02:30:31;;;;;;;3.20;2.90;;;11.10;99.90;;;;;;5090703;28;20210;-53
2022/09/17 02:33:02;;;;;;;2.70;2.50;;;11.10;99.90;;;;;;5081209;28;20736;-53
2022/09/17 02:35:32;;;;;;;3.87;2.77;;;11.10;99.90;;;;;;5091089;28;20200;-53
2022/09/17 02:38:00;;;;;;;2.90;2.70;;;11.10;99.90;;;;;;5091384;28;20297;-53
2022/09/17 02:40:35;;;;;;;3.03;2.57;;;11.10;99.90;;;;;;5090754;28;20204;-52
2022/09/17 02:43:13;;;;;;;2.50;2.30;;;11.10;99.90;;;;;;5090465;28;20220;-53
2022/09/17 02:45:53;;;;;;;4.53;2.40;;;11.10;99.90;;;;;;5090730;28;20204;-53
2022/09/17 02:48:38;;;;;;;2.83;2.20;;;11.10;99.90;;;;;;5091106;28;20766;-53
2022/09/17 02:51:20;;;;;;;3.50;2.27;;;11.00;99.90;;;;;;5090923;28;20262;-53
2022/09/17 02:53:58;;;;;;;2.23;2.03;;;11.10;99.90;;;;;;5090512;28;20209;-53
2022/09/17 02:56:41;;;;;;;3.57;2.10;;;11.00;99.90;;;;;;5090811;28;20208;-53
2022/09/17 02:59:18;;;;;;;2.17;1.80;;;11.10;99.90;;;;;;5090885;28;20232;-52
2022/09/17 03:01:52;;;;;;;3.00;2.33;;;11.00;99.90;;;;;;5090152;28;20207;-52
2022/09/17 03:04:24;;;;;;;3.03;2.47;;;11.00;99.90;;;;;;5089623;28;20236;-53
2022/09/17 03:06:53;;;;;;;4.20;2.40;;;11.00;99.90;;;;;;5090810;28;20239;-53
2022/09/17 03:09:21;;;;;;;3.97;2.30;;;10.90;99.90;;;;;;5090302;28;20259;-53
2022/09/17 03:11:49;;;;;;;3.87;2.00;;;10.90;99.90;;;;;;5090358;28;20212;-53
2022/09/17 03:14:19;;;;;;;4.50;2.27;;;10.80;99.90;;;;;;5090543;28;20222;-53
2022/09/17 03:16:47;;;;;;;7.10;2.30;;;10.70;99.90;;;;;;5090750;28;20200;-54
2022/09/17 03:19:15;;;;;;;4.67;2.60;;;10.60;99.90;;;;;;5090815;28;20314;-53
2022/09/17 03:21:45;;;;;;;5.63;2.37;;;10.60;99.90;;;;;;5090301;28;20228;-53
2022/09/17 03:24:13;;;;;;;4.97;2.43;;;10.50;99.90;;;;;;5090139;28;20311;-53
2022/09/17 03:26:41;;;;;;;5.07;2.20;;;10.50;99.90;;;;;;5090304;28;20209;-53
2022/09/17 03:29:09;;;;;;;4.73;2.80;;;10.50;99.90;;;;;;5090563;28;20235;-53
2022/09/17 03:31:37;;;;;;;5.50;2.67;;;10.50;99.90;;;;;;5090353;28;20206;-53
2022/09/17 03:34:06;;;;;;;4.10;2.70;;;10.60;99.90;;;;;;5089946;28;20302;-53
2022/09/17 03:36:34;;;;;;;4.97;2.40;;;10.60;99.90;;;;;;5090290;28;20206;-53
2022/09/17 03:39:04;;;;;;;6.03;3.03;;;10.70;99.90;;;;;;5090473;28;20314;-53
2022/09/17 03:41:32;;;;;;;4.20;2.70;;;10.70;99.90;;;;;;5090403;28;20293;-53
2022/09/17 03:44:00;;;;;;;4.33;2.60;;;10.70;99.90;;;;;;5089955;28;20247;-53
2022/09/17 03:46:28;;;;;;;9.87;2.70;;;10.70;99.90;;;;;;5089863;28;20233;-53
2022/09/17 03:48:56;;;;;;;6.30;3.20;;;10.70;99.90;;;;;;5089865;28;20220;-53
2022/09/17 03:51:25;;;;;;;7.27;3.17;;;10.70;99.90;;;;;;5090010;28;20232;-53
2022/09/17 03:53:53;;;;;;;7.63;3.20;;;10.80;99.90;;;;;;5089230;28;20568;-53
2022/09/17 03:56:22;;;;;;;10.93;3.80;;;10.80;99.90;;;;;;5089330;28;20238;-53
2022/09/17 03:58:50;;;;;;;9.27;3.73;;;10.80;99.90;;;;;;5089856;28;20312;-53
2022/09/17 04:01:18;;;;;;;13.33;4.13;;;10.80;99.90;;;;;;5088933;28;20208;-53
2022/09/17 04:03:46;;;;;;;9.83;4.30;;;10.80;99.90;;;;;;5088847;28;20696;-52
2022/09/17 04:06:14;;;;;;;10.97;4.03;;;10.80;99.90;;;;;;5089585;28;20204;-53
2022/09/17 04:08:42;;;;;;;13.67;4.87;;;10.70;99.90;;;;;;5089632;28;20271;-53
2022/09/17 04:11:11;;;;;;;15.30;4.80;;;10.80;99.90;;;;;;5104903;28;20239;-53
2022/09/17 04:13:40;;;;;;;12.73;4.73;;;10.80;99.90;;;;;;5109470;28;20238;-53
2022/09/17 04:16:08;;;;;;;15.30;5.07;;;10.80;99.90;;;;;;5109041;28;20378;-53
2022/09/17 04:18:37;;;;;;;16.10;4.93;;;10.70;99.90;;;;;;5101660;28;20230;-53
2022/09/17 04:21:05;;;;;;;14.27;5.10;;;10.70;99.90;;;;;;5107580;28;20202;-53
2022/09/17 04:23:33;;;;;;;18.83;5.20;;;10.80;99.90;;;;;;5109058;28;20255;-53
2022/09/17 04:26:01;;;;;;;11.73;5.20;;;10.70;99.90;;;;;;5109632;28;20287;-53
2022/09/17 04:28:29;;;;;;;14.23;5.20;;;10.60;99.90;;;;;;5109580;28;20310;-53
2022/09/17 04:30:58;;;;;;;14.60;5.17;;;10.60;99.90;;;;;;5101285;28;20259;-53
2022/09/17 04:33:26;;;;;;;12.63;5.67;;;10.50;99.90;;;;;;5078386;28;20204;-53
2022/09/17 04:35:55;;;;;;;14.30;5.20;;;10.40;99.90;;;;;;5089366;28;20287;-53
2022/09/17 04:38:23;;;;;;;17.23;5.40;;;10.30;99.90;;;;;;5088756;28;20724;-53
2022/09/17 04:40:51;;;;;;;13.07;5.67;;;10.20;99.90;;;;;;5089075;28;20295;-53
2022/09/17 04:43:19;;;;;;;15.67;5.67;;;10.20;99.90;;;;;;5088447;28;20255;-53
2022/09/17 04:45:48;;;;;;;15.53;6.00;;;10.10;99.90;;;;;;5088736;28;20300;-53
2022/09/17 04:48:17;;;;;;;14.83;5.80;;;10.10;99.90;;;;;;5089112;28;20261;-53
2022/09/17 04:50:45;;;;;;;16.23;5.93;;;10.00;99.90;;;;;;5088744;28;20295;-54
2022/09/17 04:53:14;;;;;;;14.47;6.07;;;10.00;99.90;;;;;;5088575;28;20235;-53
2022/09/17 04:55:42;;;;;;;19.53;6.20;;;10.00;99.90;;;;;;5088967;28;20634;-53
2022/09/17 04:58:10;;;;;;;13.97;6.20;;;9.90;99.90;;;;;;5088823;28;20262;-53
2022/09/17 05:00:39;;;;;;;13.63;5.57;;;9.90;99.90;;;;;;5089182;28;20216;-54
2022/09/17 05:03:07;;;;;;;14.57;5.90;;;9.90;99.90;;;;;;5087953;28;20680;-54
2022/09/17 05:05:37;;;;;;;15.13;5.70;;;9.90;99.90;;;;;;5088513;28;20852;-53
2022/09/17 05:08:07;;;;;;;10.83;5.63;;;9.90;99.90;;;;;;5088970;28;20670;-53
2022/09/17 05:10:35;;;;;;;13.00;5.90;;;9.90;99.90;;;;;;5089204;28;20200;-52
2022/09/17 05:13:03;;;;;;;12.77;5.73;;;10.00;99.90;;;;;;5088132;28;20212;-54
2022/09/17 05:15:31;;;;;;;17.30;6.10;;;10.00;99.90;;;;;;5088676;28;20750;-53
2022/09/17 05:17:59;;;;;;;12.77;6.17;;;10.10;99.90;;;;;;5088746;28;20246;-53
2022/09/17 05:20:27;;;;;;;14.90;6.27;;;10.10;99.90;;;;;;5088618;28;20211;-53
2022/09/17 05:22:57;;;;;;;17.40;6.37;;;10.20;99.90;;;;;;5088156;28;20263;-53
2022/09/17 05:25:25;;;;;;;14.67;6.67;;;10.20;99.90;;;;;;5088947;28;20270;-53
2022/09/17 05:27:53;;;;;;;19.33;7.00;;;10.30;99.90;;;;;;5089230;28;20259;-53
2022/09/17 05:30:22;;;;;;;13.87;6.43;;;10.30;99.90;;;;;;5082637;28;20201;-53
2022/09/17 05:32:59;;;;;;;17.93;6.47;;;10.30;99.90;;;;;;5074867;28;20213;-53
2022/09/17 05:35:27;;;;;;;19.03;6.83;;;10.30;99.90;;;;;;5080344;28;20207;-53
2022/09/17 05:38:01;;;;;;;20.93;6.67;;;10.30;99.90;;;;;;5091630;28;20778;-53
2022/09/17 05:40:31;;;;;;;14.93;6.03;;;10.20;99.90;;;;;;5091008;28;20200;-53
2022/09/17 05:43:00;;;;;;;15.80;6.20;;;10.20;99.90;;;;;;5084151;28;20215;-53
2022/09/17 05:45:28;;;;;;;13.87;6.10;;;10.20;99.90;;;;;;5090686;28;20315;-53
2022/09/17 05:47:57;;;;;;;16.97;6.17;;;10.20;99.90;;;;;;5090745;28;20251;-53
2022/09/17 05:50:26;;;;;;;17.53;6.40;;;10.20;99.90;;;;;;5090157;28;20200;-54
2022/09/17 05:52:55;;;;;;;15.23;5.63;;;10.30;99.90;;;;;;5089624;28;20236;-53
2022/09/17 05:55:26;;;;;;;15.10;5.53;;;10.30;99.90;;;;;;5090851;28;20231;-53
2022/09/17 05:57:54;;;;;;;11.37;5.13;;;10.40;99.90;;;;;;5089054;28;20319;-54
2022/09/17 06:00:22;;;;;;;16.57;6.23;;;10.40;99.90;;;;;;5090974;28;20299;-52
2022/09/17 06:02:54;;;;;;;15.70;6.40;;;10.50;99.90;;;;;;5090866;28;20208;-53
2022/09/17 06:05:23;;;;;;;14.20;5.70;;;10.60;99.90;;;;;;5090733;28;20226;-53
2022/09/17 06:07:51;;;;;;;17.47;6.23;;;10.60;99.90;;;;;;5091019;28;20314;-53
2022/09/17 06:10:19;;;;;;;15.17;5.33;;;10.70;99.90;;;;;;5091066;28;20303;-53
2022/09/17 06:12:48;;;;;;;15.07;6.37;;;10.70;99.90;;;;;;5090380;28;20236;-53
2022/09/17 06:15:17;;;;;;;11.10;5.30;;;10.80;99.90;;;;;;5083791;28;20235;-53
2022/09/17 06:17:45;;;;;;;13.97;5.97;;;10.90;99.90;;;;;;5087248;28;20299;-54
2022/09/17 06:20:15;;;;;;;17.37;5.97;;;11.00;99.90;;;;;;5088370;28;20252;-51
2022/09/17 06:22:43;;;;;;;17.17;6.00;;;11.10;99.90;;;;;;5088905;28;20208;-53
2022/09/17 06:25:11;;;;;;;10.27;4.87;;;11.10;99.90;;;;;;5088655;28;20603;-53
2022/09/17 06:27:39;;;;;;;15.63;6.20;;;11.20;99.90;;;;;;5088505;28;20232;-53
2022/09/17 06:30:09;;;;;;;13.20;5.83;;;11.40;99.90;;;;;;5088756;28;20296;-53
2022/09/17 06:32:37;;;;;;;18.20;5.90;;;11.40;99.90;;;;;;5073473;28;20206;-53
2022/09/17 06:35:07;;;;;;;12.80;5.73;;;11.60;99.90;;;;;;5078569;28;20232;-53
2022/09/17 06:37:39;;;;;;;15.20;5.60;;;11.80;99.90;;;;;;5089837;28;20287;-53
2022/09/17 06:40:08;;;;;;;18.37;6.77;;;11.80;99.90;;;;;;5090677;28;20641;-53
2022/09/17 06:42:36;;;;;;;11.50;5.30;;;12.00;99.90;;;;;;5089690;28;20865;-53
2022/09/17 06:45:06;;;;;;;20.13;5.93;;;12.20;99.90;;;;;;5090471;28;20222;-53
2022/09/17 06:47:41;;;;;;;15.17;5.47;;;12.40;99.90;;;;;;5089899;28;20210;-54
2022/09/17 06:50:09;;;;;;;18.87;6.07;;;12.50;99.90;;;;;;5090215;28;20266;-53
2022/09/17 06:52:38;;;;;;;16.10;5.97;;;12.50;99.90;;;;;;5088958;28;20210;-53
2022/09/17 06:55:06;;;;;;;14.73;5.30;;;12.50;99.90;;;;;;5089478;28;20228;-53
2022/09/17 06:57:34;;;;;;;15.80;5.43;;;12.30;99.90;;;;;;5089020;28;20251;-53
2022/09/17 07:00:03;;;;;;;14.67;5.20;;;12.20;99.90;;;;;;5089587;28;20287;-54
2022/09/17 07:02:32;;;;;;;19.03;4.97;;;12.20;99.90;;;;;;5081008;28;20204;-54
2022/09/17 07:05:01;;;;;;;20.00;5.20;;;12.10;99.90;;;;;;5090219;28;20319;-54
2022/09/17 07:07:29;;;;;;;17.57;5.80;;;12.00;99.90;;;;;;5091869;28;20786;-54
2022/09/17 07:09:57;;;;;;;23.60;5.80;;;12.10;99.90;;;;;;5092100;28;20227;-54
2022/09/17 07:12:25;;;;;;;24.10;5.80;;;12.20;99.90;;;;;;5090960;28;20208;-54
2022/09/17 07:14:53;;;;;;;17.23;4.57;;;12.10;99.90;;;;;;5089519;28;20292;-53
2022/09/17 07:17:22;;;;;;;15.63;5.20;;;12.10;99.90;;;;;;5089613;28;20275;-54
2022/09/17 07:19:50;;;;;;;13.57;4.63;;;12.10;99.90;;;;;;5087388;28;20252;-53
2022/09/17 07:22:19;;;;;;;17.63;5.17;;;12.00;99.90;;;;;;5087649;28;20292;-53
2022/09/17 07:24:47;;;;;;;15.23;5.13;;;12.00;99.90;;;;;;5089297;28;20735;-54
2022/09/17 07:27:15;;;;;;;15.73;5.00;;;12.20;99.90;;;;;;5089146;28;20238;-54
2022/09/17 07:29:43;;;;;;;9.50;4.20;;;12.50;99.90;;;;;;5089032;28;20238;-53
2022/09/17 07:32:11;;;;;;;11.93;4.27;;;12.70;99.90;;;;;;5083051;28;20247;-54
2022/09/17 07:34:39;;;;;;;13.37;4.17;;;12.80;99.90;;;;;;5088728;28;20287;-53
2022/09/17 07:37:07;;;;;;;17.87;4.47;;;12.70;99.90;;;;;;5089113;28;20235;-54
2022/09/17 07:39:37;;;;;;;13.30;4.70;;;12.60;99.90;;;;;;5088982;28;20312;-53
2022/09/17 07:42:05;;;;;;;20.70;4.53;;;12.50;99.90;;;;;;5088883;28;20214;-52
2022/09/17 07:44:33;;;;;;;13.67;4.20;;;12.40;99.90;;;;;;5087516;28;20314;-53
2022/09/17 07:47:02;;;;;;;16.33;4.73;;;12.50;99.90;;;;;;5087807;28;20236;-54
2022/09/17 07:49:30;;;;;;;15.77;4.20;;;12.60;99.90;;;;;;5088193;28;20307;-53
2022/09/17 07:51:59;;;;;;;15.53;3.90;;;12.60;99.90;;;;;;5088185;28;20228;-53
2022/09/17 07:54:27;;;;;;;12.30;3.83;;;12.60;99.90;;;;;;5088865;28;20206;-53
2022/09/17 07:56:56;;;;;;;13.53;3.93;;;12.80;99.90;;;;;;5088890;28;20210;-53
2022/09/17 07:59:24;;;;;;;12.37;4.00;;;13.20;99.90;;;;;;5088745;28;20270;-54
2022/09/17 08:01:52;;;;;;;14.20;4.00;;;13.10;99.90;;;;;;5088770;28;20320;-53
2022/09/17 08:04:21;;;;;;;15.23;3.77;;;13.30;99.90;;;;;;5089145;28;20204;-54
2022/09/17 08:06:49;;;;;;;14.70;3.80;;;13.50;99.90;;;;;;5088674;28;20693;-54
2022/09/17 08:09:18;;;;;;;11.47;3.63;;;13.50;99.90;;;;;;5088488;28;20224;-53
2022/09/17 08:11:46;;;;;;;16.10;3.83;;;13.40;99.90;;;;;;5088286;28;20209;-54
2022/09/17 08:14:30;;;;;;;12.27;3.20;;;13.30;99.90;;;;;;5081157;28;20212;-53
2022/09/17 08:16:58;;;;;;;10.50;2.97;;;13.30;99.90;;;;;;5088951;28;20208;-54
2022/09/17 08:19:27;;;;;;;9.30;3.10;;;13.50;99.90;;;;;;5088088;28;20234;-54
2022/09/17 08:21:55;;;;;;;9.87;3.03;;;13.60;99.90;;;;;;5087894;28;20902;-53
2022/09/17 08:24:23;;;;;;;11.33;3.13;;;13.80;99.90;;;;;;5088662;28;20287;-54
2022/09/17 08:26:51;;;;;;;12.90;3.50;;;13.60;99.90;;;;;;5088112;28;20708;-53
2022/09/17 08:29:19;;;;;;;11.33;3.00;;;13.70;99.90;;;;;;5087735;28;20307;-54
2022/09/17 08:31:49;;;;;;;11.37;3.30;;;13.70;99.90;;;;;;5083724;28;20211;-53
2022/09/17 08:34:17;;;;;;;12.33;3.50;;;13.80;99.90;;;;;;5087734;28;20281;-53
2022/09/17 08:36:45;;;;;;;11.53;2.83;;;13.80;99.90;;;;;;5089069;28;20239;-53
2022/09/17 08:39:13;;;;;;;9.53;2.90;;;13.80;99.90;;;;;;5088500;28;20732;-53
2022/09/17 08:41:55;;;;;;;10.67;3.00;;;14.20;99.90;;;;;;5088759;28;20200;-53
2022/09/17 08:44:31;;;;;;;8.53;2.60;;;14.50;99.90;;;;;;5088198;28;20271;-54
2022/09/17 08:47:05;;;;;;;7.13;2.83;;;14.70;99.90;;;;;;5081964;28;20220;-53
2022/09/17 08:49:35;;;;;;;14.23;3.37;;;14.60;99.90;;;;;;5088588;28;20282;-53
2022/09/17 08:52:48;;;;;;;7.47;2.93;;;14.50;99.90;;;;;;5088542;28;20204;-53
2022/09/17 08:55:32;;;;;;;11.70;3.37;;;14.30;99.90;;;;;;5076875;28;20262;-54
2022/09/17 08:58:37;;;;;;;10.07;2.60;;;14.30;99.90;;;;;;5088192;28;20271;-54
2022/09/17 09:01:23;;;;;;;9.40;2.83;;;14.00;99.90;;;;;;5005874;28;20298;-53
2022/09/17 09:04:18;;;;;;;8.17;2.43;;;14.00;99.90;;;;;;5081722;28;20224;-53
2022/09/17 09:06:49;;;;;;;8.93;2.40;;;13.80;99.90;;;;;;5092072;28;20263;-53
2022/09/17 09:09:20;;;;;;;10.10;2.70;;;13.60;99.90;;;;;;5092402;28;20224;-53
2022/09/17 09:11:54;;;;;;;9.67;2.93;;;13.50;99.90;;;;;;5091615;28;20299;-53
2022/09/17 09:14:27;;;;;;;8.90;2.70;;;13.50;99.90;;;;;;5092108;28;20240;-53
2022/09/17 09:16:56;;;;;;;10.97;2.83;;;13.60;99.90;;;;;;5079044;28;20295;-53
2022/09/17 09:19:28;;;;;;;7.93;2.57;;;13.60;99.90;;;;;;5082823;28;20316;-53
2022/09/17 09:22:03;;;;;;;6.53;2.47;;;13.80;99.90;;;;;;5090817;28;20283;-53
2022/09/17 09:24:40;;;;;;;8.83;2.63;;;13.80;99.90;;;;;;5091463;28;20290;-53
2022/09/17 09:27:17;;;;;;;7.63;2.73;;;13.90;99.90;;;;;;5091588;28;20659;-54
2022/09/17 09:29:57;;;;;;;10.23;4.17;;;13.90;99.90;;;;;;5091593;28;20259;-53
2022/09/17 09:32:41;;;;;;;9.77;2.90;;;14.00;99.90;;;;;;5072153;28;20287;-53
2022/09/17 09:35:18;;;;;;;7.23;2.90;;;14.00;99.90;;;;;;5082230;28;20200;-53
2022/09/17 09:37:53;;;;;;;7.83;3.03;;;14.00;99.90;;;;;;5090829;28;20290;-54
2022/09/17 09:40:41;;;;;;;10.13;2.80;;;14.00;99.90;;;;;;5090180;28;20239;-53
2022/09/17 09:43:17;;;;;;;12.37;3.30;;;14.00;99.90;;;;;;5090779;28;20204;-53
2022/09/17 09:46:08;;;;;;;10.27;2.70;;;14.10;99.90;;;;;;5089855;28;20624;-53
2022/09/17 09:48:45;;;;;;;7.77;2.60;;;14.10;99.90;;;;;;5087353;28;20307;-53
2022/09/17 09:51:37;;;;;;;14.60;3.13;;;14.20;99.90;;;;;;5092739;28;20204;-53
2022/09/17 09:54:19;;;;;;;12.07;3.10;;;14.30;99.90;;;;;;5088564;28;20208;-53
2022/09/17 09:57:07;;;;;;;7.37;2.77;;;14.50;99.90;;;;;;5087277;28;20213;-53
2022/09/17 09:59:35;;;;;;;9.97;3.10;;;14.50;99.90;;;;;;5087201;28;20228;-52
2022/09/17 10:02:04;;;;;;;11.37;2.80;;;14.50;99.90;;;;;;5090572;28;20235;-53
2022/09/17 10:04:32;;;;;;;9.60;2.77;;;14.80;99.90;;;;;;5090610;28;20680;-54
2022/09/17 10:07:05;;;;;;;7.77;3.00;;;15.10;99.90;;;;;;5090466;28;20236;-53
2022/09/17 10:09:35;;;;;;;8.00;2.50;;;15.50;99.90;;;;;;5090904;28;20228;-53
2022/09/17 10:12:15;;;;;;;7.70;2.77;;;15.50;99.90;;;;;;5089897;28;20208;-53
2022/09/17 10:14:44;;;;;;;8.73;2.37;;;15.40;99.90;;;;;;5090345;28;20236;-52
2022/09/17 10:17:20;;;;;;;9.10;2.60;;;15.10;99.90;;;;;;5091118;28;20201;-53
2022/09/17 10:20:14;;;;;;;10.20;2.93;;;14.60;99.90;;;;;;5089242;28;20219;-53
2022/09/17 10:22:50;;;;;;;10.70;2.67;;;14.60;99.90;;;;;;5090951;28;20242;-53
2022/09/17 10:25:41;;;;;;;8.10;3.00;;;15.00;99.90;;;;;;5111511;28;20238;-53
2022/09/17 10:28:27;;;;;;;9.97;2.43;;;15.40;99.90;;;;;;5108360;28;20310;-53
2022/09/17 10:30:57;;;;;;;7.23;2.47;;;15.50;99.90;;;;;;5093124;28;20223;-53
2022/09/17 10:33:28;;;;;;;8.40;2.43;;;15.60;99.90;;;;;;5073132;28;20291;-53
2022/09/17 10:36:00;;;;;;;7.87;2.50;;;15.50;99.90;;;;;;5080295;28;20216;-53
2022/09/17 10:38:34;;;;;;;8.33;2.37;;;15.30;99.90;;;;;;5089260;28;20266;-53
2022/09/17 10:41:14;;;;;;;10.40;2.70;;;15.30;99.90;;;;;;5088539;28;20680;-53
2022/09/17 10:43:42;;;;;;;9.50;2.60;;;15.20;99.90;;;;;;5089330;28;20200;-53
2022/09/17 10:46:15;;;;;;;8.77;2.47;;;14.90;99.90;;;;;;5089283;28;20314;-53
2022/09/17 10:48:46;;;;;;;4.83;1.90;;;15.10;99.90;;;;;;5089113;28;20223;-53
2022/09/17 10:51:22;;;;;;;8.68;2.22;;;15.40;99.90;;;;;;5089871;28;20673;-52
2022/09/17 10:54:19;;;;;;;10.18;2.53;;;15.70;99.90;;;;;;5089476;28;20204;-53
2022/09/17 10:56:52;;;;;;;8.20;2.50;;;15.90;99.90;;;;;;5090055;28;20259;-53
2022/09/17 10:59:52;;;;;;;8.63;2.60;;;15.90;99.90;;;;;;5089102;28;20319;-53
2022/09/17 11:02:47;;;;;;;9.90;2.60;;;15.70;99.90;;;;;;5089456;28;20269;-53
2022/09/17 11:05:38;;;;;;;9.37;2.50;;;15.60;99.90;;;;;;5087831;28;20661;-53
2022/09/17 11:08:11;;;;;;;6.20;2.00;;;15.80;99.90;;;;;;5089229;28;20283;-53
2022/09/17 11:10:50;;;;;;;6.82;2.00;;;16.00;99.90;;;;;;5088755;28;20333;-53
2022/09/17 11:13:30;;;;;;;7.67;2.10;;;15.90;99.90;;;;;;5088570;28;20240;-53
2022/09/17 11:16:12;;;;;;;5.22;1.90;;;15.90;99.90;;;;;;5086577;28;20296;-54
2022/09/17 11:18:45;;;;;;;6.87;2.40;;;15.70;99.90;;;;;;5088940;28;20220;-53
2022/09/17 11:21:41;;;;;;;7.95;2.10;;;15.30;99.90;;;;;;5089113;28;20433;-53
2022/09/17 11:24:53;;;;;;;4.60;1.73;;;14.90;99.90;;;;;;5087190;28;20222;-54
2022/09/17 11:27:48;;;;;;;5.77;1.73;;;14.80;99.90;;;;;;5087810;28;20676;-53
2022/09/17 11:30:19;;;;;;;5.63;2.00;;;14.90;99.90;;;;;;5079261;28;20283;-53
2022/09/17 11:33:19;;;;;;;6.30;2.00;;;15.00;99.90;;;;;;5087703;28;20291;-53
2022/09/17 11:35:49;;;;;;;8.07;2.00;;;15.10;99.90;;;;;;5088503;28;20238;-53
2022/09/17 11:38:24;;;;;;;6.87;1.97;;;15.20;99.90;;;;;;5086608;28;20332;-54
2022/09/17 11:41:00;;;;;;;4.35;1.75;;;15.10;99.90;;;;;;5086577;28;20303;-53
2022/09/17 11:43:32;;;;;;;6.80;1.63;;;15.10;99.90;;;;;;5084227;28;20200;-53
2022/09/17 11:46:05;;;;;;;6.85;2.55;;;15.20;99.90;;;;;;5082991;28;20208;-52
2022/09/17 11:48:39;;;;;;;6.67;2.00;;;15.20;99.90;;;;;;5088108;28;20224;-54
2022/09/17 11:51:18;;;;;;;5.27;2.00;;;15.20;99.90;;;;;;5088537;28;20290;-53
2022/09/17 11:53:50;;;;;;;6.87;2.13;;;15.20;99.90;;;;;;5088055;28;20224;-52
2022/09/17 11:56:25;;;;;;;5.93;1.67;;;15.20;99.90;;;;;;5095956;28;20207;-54
2022/09/17 11:59:00;;;;;;;6.97;1.80;;;15.20;99.90;;;;;;5087956;28;20318;-53
2022/09/17 12:01:35;;;;;;;6.57;2.17;;;15.00;99.90;;;;;;5087305;28;20199;-53
2022/09/17 12:04:19;;;;;;;5.97;2.20;;;15.00;99.90;;;;;;5088090;28;20726;-53
2022/09/17 12:06:56;;;;;;;5.93;1.63;;;15.40;99.90;;;;;;5086961;28;20216;-53
2022/09/17 12:09:28;;;;;;;4.18;1.52;;;15.90;99.90;;;;;;5079480;28;20361;-54
2022/09/17 12:12:03;;;;;;;3.88;1.55;;;16.20;99.90;;;;;;5087205;28;20674;-54
2022/09/17 12:14:44;;;;;;;4.43;1.23;;;16.10;99.90;;;;;;5087344;28;20660;-53
2022/09/17 12:17:16;;;;;;;4.40;1.52;;;16.00;99.90;;;;;;5077475;28;20227;-54
2022/09/17 12:19:50;;;;;;;4.95;1.30;;;15.70;99.90;;;;;;5087984;28;20303;-54
2022/09/17 12:22:23;;;;;;;3.00;1.48;;;15.60;99.90;;;;;;5084918;28;20258;-53
2022/09/17 12:24:51;;;;;;;4.95;1.50;;;15.60;99.90;;;;;;5087561;28;20945;-53
2022/09/17 12:27:30;;;;;;;4.43;1.60;;;15.60;99.90;;;;;;5087928;28;20308;-53
2022/09/17 12:30:08;;;;;;;3.53;1.35;;;15.50;99.90;;;;;;5085043;28;20311;-54
2022/09/17 12:33:01;;;;;;;3.53;1.25;;;15.30;99.90;;;;;;5075627;28;20311;-53
2022/09/17 12:36:14;;;;;;;3.00;1.13;;;15.10;99.90;;;;;;5084172;28;20326;-52
2022/09/17 12:38:58;;;;;;;3.72;1.10;;;14.70;99.90;;;;;;5086721;28;20227;-53
2022/09/17 12:41:42;;;;;;;3.03;1.17;;;14.60;99.90;;;;;;5091917;28;20200;-52
2022/09/17 12:44:37;;;;;;;2.50;1.10;;;14.50;99.90;;;;;;5094275;28;20226;-53
2022/09/17 12:47:41;;;;;;;3.13;1.20;;;14.50;99.90;;;;;;5094960;28;20658;-53
2022/09/17 12:50:27;;;;;;;4.50;1.40;;;14.50;99.90;;;;;;5084718;28;20239;-51
2022/09/17 12:53:11;;;;;;;2.53;1.23;;;14.50;99.90;;;;;;5090984;28;20300;-51
2022/09/17 12:55:51;;;;;;;2.87;1.03;;;14.50;99.90;;;;;;5091892;28;20661;-51
2022/09/17 12:58:33;;;;;;;3.80;1.27;;;14.40;99.90;;;;;;5091019;28;20302;-51
2022/09/17 13:01:07;;;;;;;3.27;1.17;;;14.30;99.90;;;;;;5092332;28;20278;-52
2022/09/17 13:03:42;;;;;;;1.80;1.00;;;14.30;99.90;;;;;;5104335;28;20268;-51
2022/09/17 13:06:30;;;;;;;5.00;1.17;;;14.40;99.90;;;;;;5092851;28;20230;-52
2022/09/17 13:09:39;;;;;;;2.37;1.07;;;14.60;99.90;;;;;;5087272;28;20262;-51
2022/09/17 13:12:16;;;;;;;2.80;1.17;;;14.80;99.90;;;;;;5078212;28;20211;-52
2022/09/17 13:15:07;;;;;;;5.20;1.40;;;15.00;99.90;;;;;;5090977;28;20740;-52
2022/09/17 13:17:43;;;;;;;6.57;1.57;;;15.10;99.90;;;;;;5090869;28;20231;-52